Rio das Ostras, Brazil
Current Conditions -  °F | °C
As of 6:00 AM on Wednesday 22 Oct 2014 (Local Time) from SBME Reporting Station
Overcast Overcast  
Wind Chill: 64°   Ceiling: 8000
Heat Index: 64°   Visibility: 5mi
Dew Point: 64°   Wind: 5mph
Humidity: 100%   Direction: 300°WNW
Pressure: 30.12"   Gusts: NA
Location:  22.53°S, 41.95°W
Report Text: SBME 220800Z 30004KT 8000 SCT020 OVC080 18/18 Q1020
Loading
Personal Weather Stations






























Interactive Weather Map
Tropical Storm Tracking
New forecast layout! Learn more

10-Day Weather Forecast

Advertisements
Track Severe Weather on mobile